createdAt,value
2018-10-19T00:02:08.831Z,99.10
2018-10-19T00:04:37.059Z,99.10
2018-10-19T00:07:05.592Z,99.10
2018-10-19T00:09:33.874Z,99.20
2018-10-19T00:12:02.133Z,99.20
2018-10-19T00:14:30.357Z,99.30
2018-10-19T00:16:58.885Z,99.30
2018-10-19T00:19:27.051Z,99.40
2018-10-19T00:21:55.282Z,99.40
2018-10-19T00:24:23.511Z,99.50
2018-10-19T00:26:51.802Z,99.50
2018-10-19T00:29:20.171Z,99.80
2018-10-19T00:31:48.383Z,99.80
2018-10-19T00:34:16.649Z,99.80
2018-10-19T00:36:44.910Z,99.80
2018-10-19T00:39:13.537Z,99.80
2018-10-19T00:41:42.282Z,99.90
2018-10-19T00:44:11.514Z,99.90
2018-10-19T00:46:39.863Z,99.90
2018-10-19T00:49:08.453Z,99.90
2018-10-19T00:51:36.821Z,99.90
2018-10-19T00:54:05.150Z,99.80
2018-10-19T00:56:33.390Z,99.80
2018-10-19T00:59:01.654Z,99.80
2018-10-19T01:01:29.848Z,99.80
2018-10-19T01:03:58.078Z,99.80
2018-10-19T01:06:26.384Z,99.70
2018-10-19T01:08:54.609Z,99.70
2018-10-19T01:11:22.833Z,99.80
2018-10-19T01:13:51.064Z,99.90
2018-10-19T01:16:19.308Z,99.90
2018-10-19T01:18:47.560Z,99.90
2018-10-19T01:21:15.893Z,99.90
2018-10-19T01:23:44.041Z,99.90
2018-10-19T01:26:12.289Z,99.90
2018-10-19T01:28:40.546Z,99.90
2018-10-19T01:31:08.743Z,99.90
2018-10-19T01:33:37.217Z,99.90
2018-10-19T01:36:06.562Z,99.90
2018-10-19T01:38:35.225Z,99.90
2018-10-19T01:41:03.512Z,99.90
2018-10-19T01:43:31.746Z,99.90
2018-10-19T01:45:59.953Z,99.90
2018-10-19T01:48:28.614Z,99.80
2018-10-19T01:50:57.743Z,99.80
2018-10-19T01:53:26.006Z,99.60
2018-10-19T01:55:54.227Z,99.50
2018-10-19T01:58:28.960Z,99.50
2018-10-19T02:00:57.199Z,99.70
2018-10-19T02:03:25.418Z,99.50
2018-10-19T02:05:53.611Z,99.50
2018-10-19T02:08:21.867Z,99.60
2018-10-19T02:10:50.084Z,99.70
2018-10-19T02:13:18.335Z,99.80
2018-10-19T02:15:46.567Z,99.80
2018-10-19T02:18:14.806Z,99.80
2018-10-19T02:20:43.017Z,99.90
2018-10-19T02:23:11.317Z,99.90
2018-10-19T02:25:39.494Z,99.90
2018-10-19T02:28:07.747Z,99.90
2018-10-19T02:30:36.006Z,99.80
2018-10-19T02:33:04.586Z,99.90
2018-10-19T02:35:32.753Z,99.80
2018-10-19T02:38:00.970Z,99.70
2018-10-19T02:40:29.178Z,99.80
2018-10-19T02:42:57.403Z,99.80
2018-10-19T02:46:29.118Z,99.80
2018-10-19T02:48:57.582Z,99.90
2018-10-19T02:51:25.860Z,99.90
2018-10-19T02:53:54.160Z,99.90
2018-10-19T02:56:22.390Z,99.90
2018-10-19T02:58:50.644Z,99.90
2018-10-19T03:01:18.878Z,99.90
2018-10-19T03:03:47.106Z,99.90
2018-10-19T03:06:15.327Z,99.80
2018-10-19T03:08:43.653Z,99.70
2018-10-19T03:11:12.046Z,99.70
2018-10-19T03:13:40.168Z,99.90
2018-10-19T03:16:08.390Z,99.90
2018-10-19T03:18:36.662Z,99.90
2018-10-19T03:21:05.347Z,99.90
2018-10-19T03:23:33.477Z,99.90
2018-10-19T03:26:02.035Z,99.90
2018-10-19T03:28:30.238Z,99.90
2018-10-19T03:30:58.513Z,99.90
2018-10-19T03:33:26.662Z,99.90
2018-10-19T03:35:54.866Z,99.90
2018-10-19T03:38:23.091Z,99.90
2018-10-19T03:40:51.444Z,99.90
2018-10-19T03:43:19.652Z,99.90
2018-10-19T03:45:47.861Z,99.90
2018-10-19T03:48:16.078Z,99.90
2018-10-19T03:50:44.319Z,99.90
2018-10-19T03:53:12.611Z,99.90
2018-10-19T03:55:40.780Z,99.90
2018-10-19T03:58:08.998Z,99.80
2018-10-19T04:00:37.271Z,99.80
2018-10-19T04:03:05.797Z,99.90
2018-10-19T04:05:33.924Z,99.80
2018-10-19T04:08:02.148Z,99.90
2018-10-19T04:10:30.408Z,99.90
2018-10-19T04:12:58.634Z,99.90
2018-10-19T04:15:26.830Z,99.90
2018-10-19T04:17:55.065Z,99.90
2018-10-19T04:20:23.311Z,99.90
2018-10-19T04:22:55.796Z,99.90
2018-10-19T04:25:24.003Z,99.90
2018-10-19T04:27:52.263Z,99.90
2018-10-19T04:30:21.007Z,99.90
2018-10-19T04:32:49.335Z,99.90
2018-10-19T04:35:17.740Z,99.90
2018-10-19T04:37:45.860Z,99.90
2018-10-19T04:40:17.414Z,99.70
2018-10-19T04:42:45.695Z,99.80
2018-10-19T04:45:13.996Z,99.90
2018-10-19T04:47:42.507Z,99.90
2018-10-19T04:50:10.650Z,99.80
2018-10-19T04:52:38.918Z,99.80
2018-10-19T04:55:09.371Z,99.90
2018-10-19T04:57:37.617Z,99.90
2018-10-19T05:00:06.559Z,99.90
2018-10-19T05:02:35.116Z,99.90
2018-10-19T05:05:03.470Z,99.90
2018-10-19T05:07:31.765Z,99.90
2018-10-19T05:09:59.950Z,99.90
2018-10-19T05:12:28.288Z,99.90
2018-10-19T05:14:56.424Z,99.90
2018-10-19T05:17:24.627Z,99.90
2018-10-19T05:19:52.844Z,99.90
2018-10-19T05:22:21.148Z,99.90
2018-10-19T05:24:49.538Z,99.90
2018-10-19T05:27:17.743Z,99.90
2018-10-19T05:29:45.965Z,99.90
2018-10-19T05:32:14.275Z,99.90
2018-10-19T05:34:42.411Z,99.90
2018-10-19T05:37:10.649Z,99.90
2018-10-19T05:39:38.902Z,99.90
2018-10-19T05:42:07.520Z,99.90
2018-10-19T05:44:36.051Z,99.90
2018-10-19T05:47:04.406Z,99.90
2018-10-19T05:49:32.655Z,99.90
2018-10-19T05:52:00.888Z,99.90
2018-10-19T05:54:29.142Z,99.90
2018-10-19T05:56:57.478Z,99.90
2018-10-19T05:59:25.706Z,99.90
2018-10-19T06:01:53.922Z,99.90
2018-10-19T06:04:22.171Z,99.90
2018-10-19T06:06:50.414Z,99.90
2018-10-19T06:09:18.642Z,99.90
2018-10-19T06:11:46.922Z,99.90
2018-10-19T06:14:15.180Z,99.90
2018-10-19T06:16:43.480Z,99.90
2018-10-19T06:19:11.787Z,99.90
2018-10-19T06:21:39.997Z,99.90
2018-10-19T06:24:09.047Z,99.90
2018-10-19T06:26:37.306Z,99.90
2018-10-19T06:29:05.610Z,99.90
2018-10-19T06:31:33.806Z,99.90
2018-10-19T06:34:02.010Z,99.90
2018-10-19T06:36:30.261Z,99.80
2018-10-19T06:38:58.518Z,99.40
2018-10-19T06:41:26.803Z,99.40
2018-10-19T06:43:55.121Z,99.00
2018-10-19T06:46:23.270Z,98.90
2018-10-19T06:48:51.532Z,98.90
2018-10-19T06:51:19.727Z,98.80
2018-10-19T06:53:47.980Z,98.80
2018-10-19T06:56:16.327Z,98.80
2018-10-19T06:58:44.516Z,98.80
2018-10-19T07:01:12.725Z,98.80
2018-10-19T07:03:40.943Z,98.80
2018-10-19T07:06:09.246Z,98.90
2018-10-19T07:08:37.568Z,98.90
2018-10-19T07:11:06.168Z,98.80
2018-10-19T07:13:34.461Z,98.80
2018-10-19T07:16:02.748Z,98.80
2018-10-19T07:18:30.959Z,98.70
2018-10-19T07:20:59.213Z,98.70
2018-10-19T07:23:27.590Z,98.70
2018-10-19T07:25:55.885Z,98.70
2018-10-19T07:28:25.400Z,98.70
2018-10-19T07:30:53.643Z,98.80
2018-10-19T07:33:21.893Z,98.80
2018-10-19T07:35:50.190Z,98.40
2018-10-19T07:38:18.407Z,98.50
2018-10-19T07:40:46.662Z,98.70
2018-10-19T07:43:14.911Z,98.20
2018-10-19T07:45:43.115Z,98.10
2018-10-19T07:48:11.582Z,97.90
2018-10-19T07:50:39.643Z,97.70
2018-10-19T07:53:07.978Z,97.80
2018-10-19T07:55:36.175Z,97.80
2018-10-19T07:58:04.657Z,97.80
2018-10-19T08:00:32.922Z,97.60
2018-10-19T08:03:01.137Z,97.40
2018-10-19T08:05:29.382Z,97.40
2018-10-19T08:07:58.176Z,97.30
2018-10-19T08:10:26.421Z,97.30
2018-10-19T08:12:54.732Z,97.20
2018-10-19T08:15:23.045Z,96.90
2018-10-19T08:17:51.286Z,96.70
2018-10-19T08:20:19.578Z,96.60
2018-10-19T08:22:47.854Z,96.40
2018-10-19T08:25:16.078Z,96.60
2018-10-19T08:27:44.309Z,96.30
2018-10-19T08:30:12.498Z,96.50
2018-10-19T08:32:40.740Z,96.50
2018-10-19T08:35:08.989Z,96.60
2018-10-19T08:37:37.249Z,96.50
2018-10-19T08:40:06.433Z,96.50
2018-10-19T08:42:34.743Z,96.50
2018-10-19T08:45:02.979Z,96.60
2018-10-19T08:47:31.218Z,96.70
2018-10-19T08:49:59.496Z,97.10
2018-10-19T08:52:27.762Z,96.80
2018-10-19T08:54:56.005Z,96.60
2018-10-19T08:57:24.251Z,96.40
2018-10-19T08:59:52.557Z,96.20
2018-10-19T09:02:20.780Z,96.10
2018-10-19T09:04:49.012Z,96.00
2018-10-19T09:07:17.245Z,95.90
2018-10-19T09:09:52.125Z,96.00
2018-10-19T09:12:20.452Z,95.30
2018-10-19T09:14:52.271Z,95.10
2018-10-19T09:17:20.479Z,94.80
2018-10-19T09:19:50.319Z,94.70
2018-10-19T09:22:18.963Z,94.70
2018-10-19T09:24:47.199Z,94.50
2018-10-19T09:27:15.516Z,94.60
2018-10-19T09:29:43.728Z,94.50
2018-10-19T09:32:11.950Z,94.40
2018-10-19T09:34:40.159Z,94.20
2018-10-19T09:37:09.794Z,94.00
2018-10-19T09:39:38.025Z,93.90
2018-10-19T09:42:06.706Z,93.80
2018-10-19T09:44:35.265Z,93.80
2018-10-19T09:47:03.567Z,93.90
2018-10-19T09:49:31.832Z,94.00
2018-10-19T09:52:00.170Z,94.20
2018-10-19T09:54:29.322Z,94.00
2018-10-19T09:56:57.650Z,94.10
2018-10-19T09:59:25.856Z,94.00
2018-10-19T10:01:54.142Z,93.90
2018-10-19T10:04:22.388Z,93.90
2018-10-19T10:06:50.648Z,93.70
2018-10-19T10:09:18.995Z,93.60
2018-10-19T10:11:47.296Z,93.60
2018-10-19T10:14:15.606Z,93.50
2018-10-19T10:16:43.858Z,93.60
2018-10-19T10:19:12.270Z,94.00
2018-10-19T10:21:40.434Z,94.30
2018-10-19T10:24:08.756Z,94.30
2018-10-19T10:26:37.141Z,94.40
2018-10-19T10:29:06.045Z,94.40
2018-10-19T10:31:34.305Z,94.40
2018-10-19T10:34:02.593Z,94.50
2018-10-19T10:36:30.778Z,94.40
2018-10-19T10:38:59.191Z,94.10
2018-10-19T10:41:27.623Z,94.00
2018-10-19T10:43:55.909Z,94.30
2018-10-19T10:46:24.375Z,94.20
2018-10-19T10:48:52.618Z,93.90
2018-10-19T10:51:20.896Z,93.80
2018-10-19T10:53:49.162Z,93.40
2018-10-19T10:56:17.625Z,93.10
2018-10-19T10:58:45.918Z,92.80
2018-10-19T11:01:14.456Z,92.50
2018-10-19T11:03:42.641Z,92.50
2018-10-19T11:06:10.902Z,92.50
2018-10-19T11:08:39.268Z,92.50
2018-10-19T11:11:10.323Z,92.50
2018-10-19T11:13:39.418Z,92.30
2018-10-19T11:16:08.813Z,92.50
2018-10-19T11:18:37.063Z,92.30
2018-10-19T11:21:05.711Z,92.00
2018-10-19T11:23:33.986Z,92.40
2018-10-19T11:26:02.275Z,92.00
2018-10-19T11:28:31.070Z,92.20
2018-10-19T11:30:59.397Z,92.00
2018-10-19T11:33:27.660Z,91.60
2018-10-19T11:35:56.009Z,91.60
2018-10-19T11:38:24.565Z,91.70
2018-10-19T11:40:52.877Z,91.90
2018-10-19T11:43:21.146Z,91.80
2018-10-19T11:45:49.393Z,92.00
2018-10-19T11:48:17.695Z,91.30
2018-10-19T11:50:45.962Z,90.50
2018-10-19T11:53:14.212Z,90.50
2018-10-19T11:55:42.511Z,90.40
2018-10-19T11:58:10.862Z,90.20
2018-10-19T12:00:39.073Z,90.20
2018-10-19T12:03:07.350Z,90.20
2018-10-19T12:05:35.711Z,90.40
2018-10-19T12:08:04.117Z,90.50
2018-10-19T12:10:39.882Z,90.40
2018-10-19T12:13:08.142Z,90.50
2018-10-19T12:15:36.749Z,90.50
2018-10-19T12:18:05.285Z,89.80
2018-10-19T12:20:33.518Z,89.90
2018-10-19T12:23:01.742Z,88.70
2018-10-19T12:25:30.087Z,88.20
2018-10-19T12:27:58.346Z,87.90
2018-10-19T12:30:26.638Z,87.60
2018-10-19T12:32:54.997Z,89.00
2018-10-19T12:35:23.279Z,89.00
2018-10-19T12:37:51.552Z,87.40
2018-10-19T12:40:19.778Z,86.60
2018-10-19T12:42:48.092Z,86.60
2018-10-19T12:46:35.914Z,86.10
2018-10-19T12:49:04.306Z,85.80
2018-10-19T12:51:32.593Z,86.20
2018-10-19T12:54:01.785Z,87.20
2018-10-19T12:56:30.019Z,86.30
2018-10-19T12:58:58.337Z,85.70
2018-10-19T13:01:27.774Z,86.10
2018-10-19T13:03:56.122Z,85.60
2018-10-19T13:06:24.412Z,85.20
2018-10-19T13:08:53.054Z,85.20
2018-10-19T13:11:21.600Z,85.10
2018-10-19T13:13:49.950Z,85.10
2018-10-19T13:16:18.295Z,85.00
2018-10-19T13:18:46.480Z,85.10
2018-10-19T13:21:14.792Z,85.30
2018-10-19T13:23:43.034Z,84.70
2018-10-19T13:26:11.409Z,85.00
2018-10-19T13:28:39.651Z,85.00
2018-10-19T13:31:07.879Z,84.30
2018-10-19T13:33:36.155Z,84.40
2018-10-19T13:36:05.000Z,84.30
2018-10-19T13:38:33.380Z,84.20
2018-10-19T13:41:01.618Z,84.50
2018-10-19T13:43:29.892Z,84.30
2018-10-19T13:45:58.226Z,84.50
2018-10-19T13:48:26.511Z,85.00
2018-10-19T13:50:54.756Z,84.20
2018-10-19T13:53:23.004Z,83.20
2018-10-19T13:55:51.273Z,83.20
2018-10-19T13:58:19.584Z,82.40
2018-10-19T14:00:47.795Z,82.30
2018-10-19T14:03:16.167Z,82.50
2018-10-19T14:05:45.088Z,82.60
2018-10-19T14:08:13.574Z,81.80
2018-10-19T14:10:41.944Z,81.40
2018-10-19T14:13:10.239Z,80.10
2018-10-19T14:15:38.489Z,80.00
2018-10-19T14:18:06.782Z,80.00
2018-10-19T14:20:35.065Z,79.90
2018-10-19T14:23:03.381Z,80.40
2018-10-19T14:25:32.592Z,80.50
2018-10-19T14:28:01.109Z,79.50
2018-10-19T14:30:29.465Z,80.20
2018-10-19T14:32:57.851Z,79.90
2018-10-19T14:35:26.123Z,79.10
2018-10-19T14:37:54.426Z,79.10
2018-10-19T14:40:22.694Z,79.20
2018-10-19T14:42:50.918Z,79.30
2018-10-19T14:45:19.277Z,79.00
2018-10-19T14:47:47.905Z,79.80
2018-10-19T14:50:17.420Z,79.60
2018-10-19T14:52:45.635Z,79.80
2018-10-19T14:55:15.608Z,80.00
2018-10-19T14:57:43.917Z,80.00
2018-10-19T15:00:14.668Z,80.00
2018-10-19T15:02:43.005Z,80.10
2018-10-19T15:05:13.121Z,80.80
2018-10-19T15:07:41.387Z,80.40
2018-10-19T15:10:12.658Z,80.70
2018-10-19T15:12:41.634Z,80.30
2018-10-19T15:15:12.164Z,80.80
2018-10-19T15:17:40.484Z,81.10
2018-10-19T15:20:08.724Z,81.00
2018-10-19T15:22:36.984Z,80.50
2018-10-19T15:25:05.843Z,80.40
2018-10-19T15:27:34.150Z,80.60
2018-10-19T15:30:02.560Z,80.80
2018-10-19T15:32:30.718Z,80.40
2018-10-19T15:34:58.995Z,80.40
2018-10-19T15:37:27.601Z,80.40
2018-10-19T15:39:55.904Z,81.30
2018-10-19T15:42:24.123Z,80.60
2018-10-19T15:44:52.387Z,81.00
2018-10-19T15:47:24.986Z,81.60
2018-10-19T15:49:54.053Z,81.80
2018-10-19T15:52:22.281Z,82.20
2018-10-19T15:54:50.996Z,82.60
2018-10-19T15:57:19.357Z,82.90
2018-10-19T15:59:47.662Z,82.90
2018-10-19T16:02:16.304Z,83.30
2018-10-19T16:04:45.171Z,83.90
2018-10-19T16:07:14.422Z,84.20
2018-10-19T16:09:42.742Z,84.50
2018-10-19T16:12:11.085Z,84.90
2018-10-19T16:14:39.570Z,85.20
2018-10-19T16:17:08.158Z,85.10
2018-10-19T16:19:36.748Z,85.50
2018-10-19T16:22:05.286Z,85.20
2018-10-19T16:24:33.530Z,85.80
2018-10-19T16:27:01.995Z,85.00
2018-10-19T16:29:30.242Z,85.10
2018-10-19T16:31:58.688Z,85.50
2018-10-19T16:34:26.988Z,85.70
2018-10-19T16:36:55.231Z,85.70
2018-10-19T16:39:23.527Z,85.80
2018-10-19T16:41:51.778Z,86.40
2018-10-19T16:44:20.039Z,86.50
2018-10-19T16:46:48.301Z,86.50
2018-10-19T16:49:16.878Z,86.80
2018-10-19T16:51:45.188Z,87.00
2018-10-19T16:54:13.518Z,87.30
2018-10-19T16:56:41.858Z,87.50
2018-10-19T16:59:10.110Z,87.90
2018-10-19T17:01:38.393Z,88.10
2018-10-19T17:04:06.796Z,88.20
2018-10-19T17:06:34.976Z,88.20
2018-10-19T17:09:03.379Z,88.20
2018-10-19T17:11:31.594Z,88.10
2018-10-19T17:13:59.868Z,88.10
2018-10-19T17:16:28.109Z,88.10
2018-10-19T17:18:56.435Z,88.20
2018-10-19T17:21:24.678Z,88.40
2018-10-19T17:23:52.914Z,88.60
2018-10-19T17:26:21.099Z,88.90
2018-10-19T17:28:49.438Z,89.20
2018-10-19T17:31:17.810Z,89.40
2018-10-19T17:33:46.257Z,89.50
2018-10-19T17:36:14.391Z,89.70
2018-10-19T17:38:42.590Z,89.90
2018-10-19T17:41:10.923Z,90.10
2018-10-19T17:43:39.092Z,90.10
2018-10-19T17:46:07.321Z,90.70
2018-10-19T17:48:35.570Z,90.40
2018-10-19T17:51:03.865Z,90.50
2018-10-19T17:53:32.099Z,90.60
2018-10-19T17:56:00.367Z,90.70
2018-10-19T17:58:28.660Z,90.80
2018-10-19T18:00:56.916Z,90.90
2018-10-19T18:03:25.150Z,90.90
2018-10-19T18:05:53.402Z,90.90
2018-10-19T18:08:21.649Z,90.90
2018-10-19T18:10:49.894Z,90.90
2018-10-19T18:13:18.102Z,90.90
2018-10-19T18:15:46.436Z,90.90
2018-10-19T18:18:14.779Z,90.90
2018-10-19T18:20:42.991Z,90.90
2018-10-19T18:23:11.396Z,91.00
2018-10-19T18:25:40.350Z,91.10
2018-10-19T18:28:08.530Z,91.10
2018-10-19T18:30:36.843Z,91.20
2018-10-19T18:33:05.486Z,91.50
2018-10-19T18:35:33.693Z,91.30
2018-10-19T18:38:02.026Z,91.40
2018-10-19T18:40:30.242Z,91.40
2018-10-19T18:42:58.475Z,91.50
2018-10-19T18:45:26.704Z,91.50
2018-10-19T18:47:54.930Z,92.00
2018-10-19T18:50:23.233Z,91.50
2018-10-19T18:52:51.371Z,91.40
2018-10-19T18:55:19.741Z,91.60
2018-10-19T18:57:47.877Z,91.40
2018-10-19T19:00:16.118Z,91.40
2018-10-19T19:02:44.343Z,91.50
2018-10-19T19:05:12.608Z,91.50
2018-10-19T19:07:40.826Z,91.90
2018-10-19T19:10:11.607Z,91.50
2018-10-19T19:12:40.034Z,91.50
2018-10-19T19:15:08.642Z,91.50
2018-10-19T19:17:37.100Z,91.60
2018-10-19T19:20:39.030Z,91.60
2018-10-19T19:23:07.296Z,91.70
2018-10-19T19:25:40.766Z,91.80
2018-10-19T19:28:08.975Z,91.90
2018-10-19T19:30:37.189Z,92.00
2018-10-19T19:33:11.368Z,91.90
2018-10-19T19:35:39.635Z,91.80
2018-10-19T19:38:07.900Z,91.80
2018-10-19T19:40:41.531Z,91.80
2018-10-19T19:43:10.060Z,91.90
2018-10-19T19:45:38.306Z,92.00
2018-10-19T19:48:11.875Z,92.10
2018-10-19T19:50:40.130Z,92.20
2018-10-19T19:53:08.338Z,92.30
2018-10-19T19:55:36.546Z,92.20
2018-10-19T19:58:05.118Z,92.30
2018-10-19T20:00:33.378Z,92.30
2018-10-19T20:03:01.622Z,92.20
2018-10-19T20:05:29.872Z,92.20
2018-10-19T20:07:58.122Z,92.30
2018-10-19T20:10:26.338Z,92.40
2018-10-19T20:12:54.593Z,92.40
2018-10-19T20:15:22.826Z,92.40
2018-10-19T20:17:51.010Z,92.50
2018-10-19T20:20:19.233Z,92.40
2018-10-19T20:22:47.552Z,92.30
2018-10-19T20:25:15.921Z,92.50
2018-10-19T20:27:44.162Z,92.60
2018-10-19T20:30:13.534Z,92.60
2018-10-19T20:32:48.350Z,92.70
2018-10-19T20:35:16.654Z,92.80
2018-10-19T20:37:44.832Z,93.00
2018-10-19T20:40:13.336Z,93.10
2018-10-19T20:42:43.770Z,93.10
2018-10-19T20:45:12.317Z,93.10
2018-10-19T20:47:40.538Z,93.10
2018-10-19T20:50:09.136Z,93.10
2018-10-19T20:52:37.703Z,93.20
2018-10-19T20:55:06.356Z,93.20
2018-10-19T20:57:34.590Z,93.20
2018-10-19T21:00:03.556Z,93.10
2018-10-19T21:02:31.930Z,93.20
2018-10-19T21:05:00.254Z,93.20
2018-10-19T21:07:28.539Z,93.40
2018-10-19T21:09:57.574Z,93.60
2018-10-19T21:12:25.935Z,93.80
2018-10-19T21:14:54.200Z,93.80
2018-10-19T21:17:22.431Z,93.80
2018-10-19T21:19:50.679Z,93.80
2018-10-19T21:22:18.919Z,93.90
2018-10-19T21:24:47.133Z,94.10
2018-10-19T21:27:15.383Z,94.20
2018-10-19T21:29:43.711Z,94.30
2018-10-19T21:32:11.927Z,94.40
2018-10-19T21:34:40.143Z,94.50
2018-10-19T21:37:09.068Z,94.60
2018-10-19T21:39:38.443Z,94.70
2018-10-19T21:42:06.878Z,94.70
2018-10-19T21:44:35.422Z,94.80
2018-10-19T21:47:03.703Z,94.90
2018-10-19T21:49:32.387Z,95.00
2018-10-19T21:52:00.663Z,95.10
2018-10-19T21:54:29.006Z,95.20
2018-10-19T21:56:57.411Z,95.30
2018-10-19T21:59:25.751Z,95.30
2018-10-19T22:01:54.468Z,95.30
2018-10-19T22:04:22.857Z,95.40
2018-10-19T22:07:02.408Z,95.40
2018-10-19T22:09:31.758Z,95.40
2018-10-19T22:12:03.610Z,95.50
2018-10-19T22:14:32.501Z,95.50
2018-10-19T22:17:01.307Z,95.70
2018-10-19T22:19:30.408Z,95.70
2018-10-19T22:21:58.673Z,95.80
2018-10-19T22:24:27.405Z,95.70
2018-10-19T22:26:55.665Z,95.70
2018-10-19T22:29:26.327Z,95.90
2018-10-19T22:31:56.441Z,95.90
2018-10-19T22:34:25.960Z,96.00
2018-10-19T22:36:54.234Z,95.70
2018-10-19T22:39:23.030Z,95.70
2018-10-19T22:41:52.446Z,96.00
2018-10-19T22:44:20.711Z,96.10
2018-10-19T22:46:49.582Z,96.40
2018-10-19T22:49:17.804Z,96.50
2018-10-19T22:51:46.027Z,96.70
2018-10-19T22:57:05.024Z,96.80
2018-10-19T22:59:33.450Z,97.00
2018-10-19T23:02:02.303Z,97.20
2018-10-19T23:04:30.824Z,97.30
2018-10-19T23:07:01.087Z,97.30
2018-10-19T23:09:29.504Z,97.30
2018-10-19T23:11:57.774Z,97.40
2018-10-19T23:14:27.114Z,97.30
2018-10-19T23:16:55.459Z,97.20
2018-10-19T23:19:23.793Z,97.40
2018-10-19T23:21:53.542Z,97.40
2018-10-19T23:24:21.758Z,97.40
2018-10-19T23:26:49.960Z,97.50
2018-10-19T23:29:19.172Z,97.60
2018-10-19T23:31:47.407Z,97.60
2018-10-19T23:34:15.666Z,97.70
2018-10-19T23:36:43.894Z,97.80
2018-10-19T23:39:12.793Z,97.70
2018-10-19T23:41:41.392Z,97.70
2018-10-19T23:44:10.162Z,97.70
2018-10-19T23:46:38.724Z,97.70
2018-10-19T23:49:07.327Z,97.90
2018-10-19T23:51:35.506Z,97.90
2018-10-19T23:54:03.746Z,98.10
2018-10-19T23:56:31.964Z,98.20
2018-10-19T23:59:00.273Z,98.30
